Time;durP1;ratioP1;P1;durP2;ratioP2;P2;SDS_P1;SDS_P2;PMS_P1;PMS_P2;Temp;Humidity;BMP_temperature;BMP_pressure;BME280_temperature;BME280_humidity;BME280_pressure;Samples;Min_cycle;Max_cycle;Signal;HPM_P1;HPM_P2
2022/11/25 00:01:27;;;;;;;15.73;3.80;;;;;;;;;;5016283;28;20268;-80
2022/11/25 00:03:54;;;;;;;14.27;3.93;;;;;;;;;;5014932;28;20181;-80
2022/11/25 00:06:21;;;;;;;14.80;3.90;;;;;;;;;;4998776;28;20213;-80
2022/11/25 00:08:48;;;;;;;15.47;3.97;;;;;;;;;;5014886;28;20181;-82
2022/11/25 00:11:15;;;;;;;13.83;3.90;;;;;;;;;;5015877;28;20204;-80
2022/11/25 00:13:41;;;;;;;17.33;3.60;;;;;;;;;;5015848;28;20177;-79
2022/11/25 00:16:09;;;;;;;16.43;3.90;;;;;;;;;;5014735;28;20182;-79
2022/11/25 00:18:35;;;;;;;18.40;3.90;;;;;;;;;;5014545;28;20229;-79
2022/11/25 00:21:08;;;;;;;20.63;4.20;;;;;;;;;;4998594;28;20185;-79
2022/11/25 00:23:34;;;;;;;12.53;4.00;;;;;;;;;;5014515;28;20188;-79
2022/11/25 00:26:20;;;;;;;14.37;3.70;;;;;;;;;;5014487;28;20177;-81
2022/11/25 00:28:47;;;;;;;13.47;4.17;;;;;;;;;;5014337;28;20188;-81
2022/11/25 00:31:15;;;;;;;19.97;4.10;;;;;;;;;;5014361;28;20217;-81
2022/11/25 00:33:41;;;;;;;15.67;4.07;;;;;;;;;;5014323;28;20212;-81
2022/11/25 00:36:14;;;;;;;16.97;4.30;;;;;;;;;;5012792;28;20272;-81
2022/11/25 00:38:40;;;;;;;19.63;4.10;;;;;;;;;;5013847;28;20177;-81
2022/11/25 00:46:34;;;;;;;18.50;4.50;;;;;;;;;;5014671;28;20191;-80
2022/11/25 00:49:00;;;;;;;18.87;4.03;;;;;;;;;;4998125;28;20189;-80
2022/11/25 00:51:26;;;;;;;17.47;4.57;;;;;;;;;;4997732;28;20248;-80
2022/11/25 00:53:53;;;;;;;17.33;4.23;;;;;;;;;;4997964;28;20188;-80
2022/11/25 00:56:21;;;;;;;13.70;3.87;;;;;;;;;;5013937;28;20181;-80
2022/11/25 00:58:47;;;;;;;20.77;4.27;;;;;;;;;;4998146;28;20193;-82
2022/11/25 01:01:13;;;;;;;14.20;4.27;;;;;;;;;;4997565;28;20189;-79
2022/11/25 01:03:39;;;;;;;14.50;4.10;;;;;;;;;;5013983;28;20192;-79
2022/11/25 01:06:10;;;;;;;15.73;3.87;;;;;;;;;;5011787;28;20208;-79
2022/11/25 01:08:37;;;;;;;15.30;4.37;;;;;;;;;;5008802;28;20190;-79
2022/11/25 01:11:05;;;;;;;22.97;4.83;;;;;;;;;;5007202;28;20210;-79
2022/11/25 01:13:31;;;;;;;13.30;3.40;;;;;;;;;;5011219;28;20200;-79
2022/11/25 01:16:00;;;;;;;18.10;4.90;;;;;;;;;;5012763;28;20187;-82
2022/11/25 01:18:27;;;;;;;14.83;4.20;;;;;;;;;;5011208;28;20229;-81
2022/11/25 01:20:53;;;;;;;15.77;3.97;;;;;;;;;;5012702;28;20178;-80
2022/11/25 01:23:19;;;;;;;16.13;3.50;;;;;;;;;;4996787;28;20219;-79
2022/11/25 01:25:45;;;;;;;20.77;4.47;;;;;;;;;;4996790;28;20185;-79
2022/11/25 01:28:12;;;;;;;13.50;3.90;;;;;;;;;;4992750;28;20189;-81
2022/11/25 01:30:39;;;;;;;12.20;3.83;;;;;;;;;;5006397;28;20213;-81
2022/11/25 01:33:05;;;;;;;16.90;3.67;;;;;;;;;;5012259;28;20323;-81
2022/11/25 01:35:31;;;;;;;21.47;4.33;;;;;;;;;;5008221;28;20182;-81
2022/11/25 01:37:57;;;;;;;15.23;4.03;;;;;;;;;;4999890;28;20281;-81
2022/11/25 01:40:23;;;;;;;17.97;3.87;;;;;;;;;;4992751;28;20225;-81
2022/11/25 01:42:49;;;;;;;20.53;3.93;;;;;;;;;;4993157;28;20186;-81
2022/11/25 01:45:25;;;;;;;20.73;4.13;;;;;;;;;;5010434;28;20185;-80
2022/11/25 01:47:53;;;;;;;14.83;4.17;;;;;;;;;;5013042;28;20173;-80
2022/11/25 01:50:21;;;;;;;15.30;4.20;;;;;;;;;;5012750;28;20181;-81
2022/11/25 01:52:49;;;;;;;14.23;3.93;;;;;;;;;;5013111;28;20265;-82
2022/11/25 01:55:19;;;;;;;17.70;4.10;;;;;;;;;;5012448;28;20196;-81
2022/11/25 01:58:12;;;;;;;16.40;4.10;;;;;;;;;;5007394;28;20188;-81
2022/11/25 02:00:38;;;;;;;17.43;3.87;;;;;;;;;;5009140;28;20189;-81
2022/11/25 02:03:04;;;;;;;14.77;4.10;;;;;;;;;;5004010;28;20197;-81
2022/11/25 02:05:46;;;;;;;14.73;3.93;;;;;;;;;;5012666;28;20190;-81
2022/11/25 02:08:12;;;;;;;21.10;4.47;;;;;;;;;;5012201;28;20189;-81
2022/11/25 02:10:38;;;;;;;13.63;3.80;;;;;;;;;;5012567;28;20213;-82
2022/11/25 02:13:04;;;;;;;15.53;4.13;;;;;;;;;;5012652;28;20189;-81
2022/11/25 02:15:33;;;;;;;15.50;3.87;;;;;;;;;;5012123;28;20188;-82
2022/11/25 02:17:59;;;;;;;15.93;4.27;;;;;;;;;;5010229;28;20217;-81
2022/11/25 02:20:25;;;;;;;14.77;4.23;;;;;;;;;;4989412;28;20193;-82
2022/11/25 02:23:13;;;;;;;17.23;4.07;;;;;;;;;;4983860;28;20186;-80
2022/11/25 02:25:40;;;;;;;21.40;4.77;;;;;;;;;;4999319;28;20194;-80
2022/11/25 02:28:11;;;;;;;12.80;4.50;;;;;;;;;;5009259;28;20189;-80
2022/11/25 02:30:37;;;;;;;17.97;4.13;;;;;;;;;;5001371;28;20236;-79
2022/11/25 02:33:04;;;;;;;18.80;4.80;;;;;;;;;;5012183;28;20267;-80
2022/11/25 02:35:34;;;;;;;18.77;4.77;;;;;;;;;;4996078;28;20189;-80
2022/11/25 02:38:03;;;;;;;16.00;4.60;;;;;;;;;;5012854;28;20197;-81
2022/11/25 02:40:29;;;;;;;19.37;4.87;;;;;;;;;;5012982;28;20193;-81
2022/11/25 02:42:58;;;;;;;16.77;4.17;;;;;;;;;;5011916;28;20193;-81
2022/11/25 02:45:29;;;;;;;16.57;4.57;;;;;;;;;;5012432;28;20177;-81
2022/11/25 02:47:55;;;;;;;16.03;4.47;;;;;;;;;;5012483;28;20208;-81
2022/11/25 02:50:21;;;;;;;12.37;4.07;;;;;;;;;;4994624;28;20232;-81
2022/11/25 02:52:47;;;;;;;17.43;4.30;;;;;;;;;;5012435;28;20189;-81
2022/11/25 02:55:13;;;;;;;17.40;3.87;;;;;;;;;;4992810;28;20194;-82
2022/11/25 02:57:39;;;;;;;19.20;4.20;;;;;;;;;;4996170;28;20280;-81
2022/11/25 03:00:06;;;;;;;15.47;4.40;;;;;;;;;;5016071;28;20264;-81
2022/11/25 03:02:32;;;;;;;17.63;4.27;;;;;;;;;;5015823;28;20196;-81
2022/11/25 03:04:58;;;;;;;15.10;4.00;;;;;;;;;;4999760;28;20181;-81
2022/11/25 03:07:24;;;;;;;13.70;4.07;;;;;;;;;;5016150;28;20193;-81
2022/11/25 03:09:50;;;;;;;12.97;4.40;;;;;;;;;;4999992;28;20232;-82
2022/11/25 03:12:19;;;;;;;15.47;4.20;;;;;;;;;;4993409;28;20233;-81
2022/11/25 03:14:46;;;;;;;14.63;4.43;;;;;;;;;;4980433;28;20209;-81
2022/11/25 03:17:12;;;;;;;14.07;4.30;;;;;;;;;;4995149;28;20224;-81
2022/11/25 03:19:38;;;;;;;13.63;4.17;;;;;;;;;;4999619;28;20204;-81
2022/11/25 03:22:04;;;;;;;13.57;4.40;;;;;;;;;;4997892;28;20197;-80
2022/11/25 03:24:30;;;;;;;19.80;4.37;;;;;;;;;;5012331;28;20186;-81
2022/11/25 03:26:56;;;;;;;13.00;3.67;;;;;;;;;;5012452;28;20193;-81
2022/11/25 03:29:22;;;;;;;18.07;4.23;;;;;;;;;;4995995;28;20201;-81
2022/11/25 03:31:48;;;;;;;17.20;4.03;;;;;;;;;;5005376;23;20238;-78
2022/11/25 03:34:14;;;;;;;22.20;4.47;;;;;;;;;;4995779;28;20181;-78
2022/11/25 03:36:40;;;;;;;17.67;4.83;;;;;;;;;;4994151;28;20218;-79
2022/11/25 03:39:06;;;;;;;18.50;4.13;;;;;;;;;;4979386;28;20194;-79
2022/11/25 03:41:32;;;;;;;20.43;4.53;;;;;;;;;;4986754;28;20221;-79
2022/11/25 03:43:58;;;;;;;16.33;4.40;;;;;;;;;;5002524;28;20229;-79
2022/11/25 03:46:24;;;;;;;14.83;4.70;;;;;;;;;;4970478;28;20194;-79
2022/11/25 03:48:50;;;;;;;17.17;4.53;;;;;;;;;;4991863;28;20310;-79
2022/11/25 03:51:16;;;;;;;15.37;4.50;;;;;;;;;;4996828;28;20250;-79
2022/11/25 03:53:42;;;;;;;17.43;4.30;;;;;;;;;;4977602;28;20186;-80
2022/11/25 03:56:08;;;;;;;19.27;4.33;;;;;;;;;;4990175;28;20197;-80
2022/11/25 03:58:34;;;;;;;17.80;4.87;;;;;;;;;;4979597;28;20204;-80
2022/11/25 04:01:01;;;;;;;21.90;4.80;;;;;;;;;;4985798;28;20257;-80
2022/11/25 04:03:27;;;;;;;20.53;5.00;;;;;;;;;;4995017;28;20298;-79
2022/11/25 04:05:53;;;;;;;19.13;4.43;;;;;;;;;;4996155;28;20186;-79
2022/11/25 04:08:19;;;;;;;19.10;5.40;;;;;;;;;;5006710;28;20190;-79
2022/11/25 04:10:45;;;;;;;19.57;5.23;;;;;;;;;;5009331;28;20276;-79
2022/11/25 04:13:11;;;;;;;19.90;4.73;;;;;;;;;;4976838;28;20194;-79
2022/11/25 04:15:37;;;;;;;20.00;4.77;;;;;;;;;;4976236;28;20197;-79
2022/11/25 04:18:03;;;;;;;20.10;4.57;;;;;;;;;;4984567;28;20187;-83
2022/11/25 04:20:29;;;;;;;18.77;5.17;;;;;;;;;;4981231;28;20193;-83
2022/11/25 04:22:55;;;;;;;17.67;4.73;;;;;;;;;;4965498;28;20193;-83
2022/11/25 04:25:21;;;;;;;19.10;4.80;;;;;;;;;;4979661;28;20197;-83
2022/11/25 04:27:47;;;;;;;20.23;5.03;;;;;;;;;;4994895;28;20246;-83
2022/11/25 04:30:13;;;;;;;19.53;5.47;;;;;;;;;;4977557;28;20286;-83
2022/11/25 04:32:39;;;;;;;24.67;5.63;;;;;;;;;;4993374;28;20228;-83
2022/11/25 04:35:05;;;;;;;22.03;5.83;;;;;;;;;;4976480;28;20281;-80
2022/11/25 04:37:31;;;;;;;24.40;6.20;;;;;;;;;;4966502;28;20198;-80
2022/11/25 04:39:57;;;;;;;25.37;6.17;;;;;;;;;;4986080;28;20238;-83
2022/11/25 04:42:33;;;;;;;25.57;6.13;;;;;;;;;;4974415;28;20198;-83
2022/11/25 04:45:00;;;;;;;22.07;5.70;;;;;;;;;;4975299;28;20178;-83
2022/11/25 04:47:27;;;;;;;25.50;6.60;;;;;;;;;;5008528;28;20190;-83
2022/11/25 04:49:53;;;;;;;22.77;6.53;;;;;;;;;;4996662;28;20189;-83
2022/11/25 04:52:19;;;;;;;25.93;7.00;;;;;;;;;;4969020;28;20214;-80
2022/11/25 04:54:45;;;;;;;24.63;6.77;;;;;;;;;;4982702;28;20186;-80
2022/11/25 04:57:14;;;;;;;25.20;6.93;;;;;;;;;;4972316;28;20195;-80
2022/11/25 04:59:41;;;;;;;20.13;6.00;;;;;;;;;;4975731;28;20190;-80
2022/11/25 05:02:18;;;;;;;24.67;6.30;;;;;;;;;;4990581;28;20183;-80
2022/11/25 05:04:45;;;;;;;23.70;6.47;;;;;;;;;;5003298;28;20186;-79
2022/11/25 05:07:11;;;;;;;23.67;7.07;;;;;;;;;;5006943;28;20182;-79
2022/11/25 05:09:37;;;;;;;23.90;6.63;;;;;;;;;;4977964;28;20190;-83
2022/11/25 05:12:04;;;;;;;22.43;7.40;;;;;;;;;;4961058;28;20217;-84
2022/11/25 05:14:30;;;;;;;24.70;6.63;;;;;;;;;;4990652;28;20183;-84
2022/11/25 05:16:56;;;;;;;24.93;7.50;;;;;;;;;;4981135;28;20178;-83
2022/11/25 05:19:22;;;;;;;20.97;7.37;;;;;;;;;;4990884;28;20185;-84
2022/11/25 05:21:48;;;;;;;24.83;6.73;;;;;;;;;;4989362;28;20189;-84
2022/11/25 05:24:14;;;;;;;20.73;7.37;;;;;;;;;;4993508;28;20182;-83
2022/11/25 05:26:40;;;;;;;21.30;7.20;;;;;;;;;;4989640;28;20216;-84
2022/11/25 05:29:06;;;;;;;29.83;7.80;;;;;;;;;;4993618;28;20186;-84
2022/11/25 05:31:32;;;;;;;22.57;7.50;;;;;;;;;;4991805;28;20228;-84
2022/11/25 05:34:01;;;;;;;24.63;7.10;;;;;;;;;;5009688;28;20256;-84
2022/11/25 05:36:28;;;;;;;23.00;7.27;;;;;;;;;;4978452;28;20202;-84
2022/11/25 05:38:55;;;;;;;29.03;7.50;;;;;;;;;;4990589;28;20178;-84
2022/11/25 05:41:21;;;;;;;25.67;6.80;;;;;;;;;;4990578;28;20273;-79
2022/11/25 05:43:47;;;;;;;18.52;6.45;;;;;;;;;;4988176;28;20421;-79
2022/11/25 05:46:13;;;;;;;21.10;7.17;;;;;;;;;;4995111;28;20174;-78
2022/11/25 05:48:39;;;;;;;23.53;6.93;;;;;;;;;;4977780;28;20258;-78
2022/11/25 05:51:05;;;;;;;26.90;6.90;;;;;;;;;;4977735;28;20307;-78
2022/11/25 05:53:31;;;;;;;21.20;6.50;;;;;;;;;;5010054;28;20182;-78
2022/11/25 05:56:02;;;;;;;25.10;7.10;;;;;;;;;;4980834;28;20232;-78
2022/11/25 05:58:29;;;;;;;21.13;6.63;;;;;;;;;;4989965;28;20202;-84
2022/11/25 06:00:57;;;;;;;26.80;6.47;;;;;;;;;;4993035;28;20197;-84
2022/11/25 06:03:27;;;;;;;19.30;6.17;;;;;;;;;;4991154;28;20190;-84
2022/11/25 06:05:55;;;;;;;27.70;6.43;;;;;;;;;;4985078;28;20202;-80
2022/11/25 06:08:21;;;;;;;21.50;6.50;;;;;;;;;;4990208;28;20189;-80
2022/11/25 06:10:47;;;;;;;28.53;6.60;;;;;;;;;;4986857;28;20198;-79
2022/11/25 06:13:13;;;;;;;23.13;6.57;;;;;;;;;;4994494;28;20232;-79
2022/11/25 06:15:43;;;;;;;26.13;6.73;;;;;;;;;;5009605;28;20178;-80
2022/11/25 06:18:10;;;;;;;19.03;6.10;;;;;;;;;;4994560;28;20176;-80
2022/11/25 06:20:36;;;;;;;17.67;5.70;;;;;;;;;;4964042;28;20194;-80
2022/11/25 06:23:02;;;;;;;20.97;6.37;;;;;;;;;;4986339;28;20194;-80
2022/11/25 06:25:28;;;;;;;23.33;6.20;;;;;;;;;;4993185;28;20248;-80
2022/11/25 06:27:54;;;;;;;24.00;6.60;;;;;;;;;;4990531;28;20214;-80
2022/11/25 06:30:20;;;;;;;22.00;6.60;;;;;;;;;;4978851;28;20226;-80
2022/11/25 06:32:47;;;;;;;22.40;5.40;;;;;;;;;;4991842;28;20237;-84
2022/11/25 06:35:13;;;;;;;15.03;4.53;;;;;;;;;;5013151;28;20185;-83
2022/11/25 06:37:39;;;;;;;12.47;4.10;;;;;;;;;;4995797;28;20185;-84
2022/11/25 06:40:06;;;;;;;12.47;4.07;;;;;;;;;;4978524;28;20190;-84
2022/11/25 06:42:32;;;;;;;10.27;3.40;;;;;;;;;;4993778;28;20183;-84
2022/11/25 06:44:58;;;;;;;16.37;4.27;;;;;;;;;;4982432;28;20194;-83
2022/11/25 06:47:24;;;;;;;12.77;3.63;;;;;;;;;;4993165;28;20217;-83
2022/11/25 06:49:50;;;;;;;13.77;3.77;;;;;;;;;;4991486;28;20210;-77
2022/11/25 06:52:17;;;;;;;13.77;3.83;;;;;;;;;;5002283;28;20210;-83
2022/11/25 06:54:44;;;;;;;12.50;3.70;;;;;;;;;;4992899;28;20197;-83
2022/11/25 06:57:11;;;;;;;15.33;4.00;;;;;;;;;;4995626;28;20257;-83
2022/11/25 06:59:37;;;;;;;16.33;3.93;;;;;;;;;;4996090;28;20182;-83
2022/11/25 07:02:04;;;;;;;11.07;3.57;;;;;;;;;;4995629;28;20182;-83
2022/11/25 07:04:30;;;;;;;14.97;3.80;;;;;;;;;;4996365;28;20233;-83
2022/11/25 07:06:56;;;;;;;16.57;4.10;;;;;;;;;;4996221;28;20232;-79
2022/11/25 07:09:23;;;;;;;15.77;4.00;;;;;;;;;;4996185;28;20213;-79
2022/11/25 07:11:49;;;;;;;11.23;3.93;;;;;;;;;;4981267;28;20237;-83
2022/11/25 07:14:16;;;;;;;11.83;3.50;;;;;;;;;;4995997;28;20190;-83
2022/11/25 07:16:43;;;;;;;13.07;3.83;;;;;;;;;;4997099;28;20178;-80
2022/11/25 07:19:10;;;;;;;9.93;3.50;;;;;;;;;;5012488;28;20185;-80
2022/11/25 07:21:36;;;;;;;13.27;4.27;;;;;;;;;;4979983;28;20205;-80
2022/11/25 07:24:03;;;;;;;11.63;4.23;;;;;;;;;;4970021;28;20194;-80
2022/11/25 07:26:30;;;;;;;10.83;3.93;;;;;;;;;;4995778;28;20177;-80
2022/11/25 07:29:00;;;;;;;8.93;3.63;;;;;;;;;;4980588;28;20199;-79
2022/11/25 07:31:29;;;;;;;9.63;3.93;;;;;;;;;;5003093;28;20220;-80
2022/11/25 07:33:56;;;;;;;10.00;4.00;;;;;;;;;;4989559;28;20222;-80
2022/11/25 07:36:22;;;;;;;18.57;4.13;;;;;;;;;;5011853;28;20178;-80
2022/11/25 07:38:48;;;;;;;10.93;3.87;;;;;;;;;;4996914;28;20178;-84
2022/11/25 07:41:16;;;;;;;11.77;4.03;;;;;;;;;;5011960;28;20197;-83
2022/11/25 07:43:46;;;;;;;13.15;4.13;;;;;;;;;;4998718;28;20500;-84
2022/11/25 07:46:13;;;;;;;12.47;4.00;;;;;;;;;;4992366;28;20197;-84
2022/11/25 07:48:40;;;;;;;14.03;4.13;;;;;;;;;;4994048;28;20178;-84
2022/11/25 07:51:13;;;;;;;12.87;3.77;;;;;;;;;;4993914;28;20209;-84
2022/11/25 07:53:39;;;;;;;11.37;4.13;;;;;;;;;;4992488;28;20177;-84
2022/11/25 07:56:05;;;;;;;8.10;3.83;;;;;;;;;;4998945;28;20195;-84
2022/11/25 07:58:31;;;;;;;8.97;3.50;;;;;;;;;;4986756;28;20277;-84
2022/11/25 08:00:57;;;;;;;14.50;4.43;;;;;;;;;;4996167;28;20268;-84
2022/11/25 08:03:23;;;;;;;16.30;3.93;;;;;;;;;;4994387;28;20216;-84
2022/11/25 08:05:49;;;;;;;10.93;4.00;;;;;;;;;;4981480;28;20198;-84
2022/11/25 08:08:15;;;;;;;9.90;3.53;;;;;;;;;;4991555;28;20183;-84
2022/11/25 08:10:41;;;;;;;10.43;3.63;;;;;;;;;;4991446;28;20305;-84
2022/11/25 08:13:07;;;;;;;10.90;4.10;;;;;;;;;;4975721;28;20232;-77
2022/11/25 08:15:33;;;;;;;12.57;4.30;;;;;;;;;;4990624;28;20194;-77
2022/11/25 08:17:59;;;;;;;12.30;4.00;;;;;;;;;;4978095;28;20191;-77
2022/11/25 08:20:25;;;;;;;11.80;4.13;;;;;;;;;;4984131;28;20240;-77
2022/11/25 08:22:51;;;;;;;12.47;4.40;;;;;;;;;;4994585;28;20182;-77
2022/11/25 08:25:17;;;;;;;8.47;4.00;;;;;;;;;;4989058;28;20185;-77
2022/11/25 08:27:43;;;;;;;10.20;3.73;;;;;;;;;;4991182;28;20281;-77
2022/11/25 08:30:09;;;;;;;9.83;3.73;;;;;;;;;;4977920;28;20274;-78
2022/11/25 08:32:38;;;;;;;10.20;3.77;;;;;;;;;;4992139;28;20268;-78
2022/11/25 08:35:05;;;;;;;10.17;3.80;;;;;;;;;;4976238;28;20214;-78
2022/11/25 08:37:31;;;;;;;10.50;3.63;;;;;;;;;;4975623;28;20265;-78
2022/11/25 08:39:57;;;;;;;8.27;3.57;;;;;;;;;;4976394;28;20266;-78
2022/11/25 08:42:23;;;;;;;8.83;3.30;;;;;;;;;;4976197;28;20221;-79
2022/11/25 08:44:54;;;;;;;6.90;3.30;;;;;;;;;;4976509;28;20175;-78
2022/11/25 08:47:20;;;;;;;8.40;3.00;;;;;;;;;;4991299;28;20175;-78
2022/11/25 08:49:46;;;;;;;7.07;2.97;;;;;;;;;;4976138;28;20194;-77
2022/11/25 08:52:12;;;;;;;5.43;2.50;;;;;;;;;;4975331;28;20261;-78
2022/11/25 08:54:38;;;;;;;7.17;3.00;;;;;;;;;;4959080;28;20187;-78
2022/11/25 08:57:04;;;;;;;8.37;3.07;;;;;;;;;;4958543;28;20183;-78
2022/11/25 08:59:30;;;;;;;6.10;2.47;;;;;;;;;;4961795;28;20186;-78
2022/11/25 09:01:56;;;;;;;7.00;2.93;;;;;;;;;;4977248;28;20183;-81
2022/11/25 09:04:22;;;;;;;6.30;2.73;;;;;;;;;;4976960;28;20193;-81
2022/11/25 09:06:48;;;;;;;7.53;3.00;;;;;;;;;;4984426;28;20210;-81
2022/11/25 09:09:14;;;;;;;7.77;3.07;;;;;;;;;;4995549;28;20185;-81
2022/11/25 09:11:41;;;;;;;5.73;2.67;;;;;;;;;;4995387;28;20197;-81
2022/11/25 09:14:07;;;;;;;6.77;2.80;;;;;;;;;;4992306;28;20196;-81
2022/11/25 09:16:33;;;;;;;6.93;2.80;;;;;;;;;;4959088;28;20254;-81
2022/11/25 09:18:59;;;;;;;5.23;2.83;;;;;;;;;;4985899;28;20266;-78
2022/11/25 09:21:25;;;;;;;10.13;3.10;;;;;;;;;;4976668;28;20201;-78
2022/11/25 09:23:52;;;;;;;7.83;2.80;;;;;;;;;;4975691;28;20191;-78
2022/11/25 09:26:23;;;;;;;5.50;3.03;;;;;;;;;;4991403;28;20214;-79
2022/11/25 09:28:50;;;;;;;7.53;3.17;;;;;;;;;;4996366;28;20193;-78
2022/11/25 09:31:16;;;;;;;4.57;2.80;;;;;;;;;;5007102;28;20264;-79
2022/11/25 09:33:42;;;;;;;6.23;3.23;;;;;;;;;;5007306;28;20317;-78
2022/11/25 09:36:09;;;;;;;7.40;3.37;;;;;;;;;;4990879;28;20178;-80
2022/11/25 09:38:35;;;;;;;6.97;3.10;;;;;;;;;;5009703;28;20212;-80
2022/11/25 09:41:11;;;;;;;6.60;2.93;;;;;;;;;;4989583;28;20186;-80
2022/11/25 09:46:44;;;;;;;6.10;3.10;;;;;;;;;;4994830;28;20185;-80
2022/11/25 09:49:13;;;;;;;8.30;3.10;;;;;;;;;;4994193;28;20185;-80
2022/11/25 09:51:59;;;;;;;7.13;3.10;;;;;;;;;;4994718;28;20202;-80
2022/11/25 09:54:31;;;;;;;5.20;2.90;;;;;;;;;;4993936;28;20182;-80
2022/11/25 09:57:09;;;;;;;6.77;2.90;;;;;;;;;;4994878;28;20236;-80
2022/11/25 09:59:42;;;;;;;7.43;3.30;;;;;;;;;;4978771;28;20186;-80
2022/11/25 10:02:19;;;;;;;5.33;2.80;;;;;;;;;;4974026;28;20191;-80
2022/11/25 10:04:54;;;;;;;6.57;3.23;;;;;;;;;;4975368;28;20257;-80
2022/11/25 10:07:24;;;;;;;7.43;3.00;;;;;;;;;;4993229;28;20190;-80
2022/11/25 10:09:51;;;;;;;6.97;3.20;;;;;;;;;;4978352;28;20190;-78
2022/11/25 10:12:22;;;;;;;5.90;3.13;;;;;;;;;;4978008;28;20206;-78
2022/11/25 10:14:49;;;;;;;7.37;3.53;;;;;;;;;;4979588;28;20182;-78
2022/11/25 10:17:15;;;;;;;6.67;3.60;;;;;;;;;;4997657;28;20209;-79
2022/11/25 10:19:47;;;;;;;6.43;3.80;;;;;;;;;;4998721;28;20210;-78
2022/11/25 10:22:24;;;;;;;7.13;3.63;;;;;;;;;;5013846;28;20185;-78
2022/11/25 10:24:52;;;;;;;8.20;3.93;;;;;;;;;;4994413;28;20182;-85
2022/11/25 10:27:22;;;;;;;5.00;3.50;;;;;;;;;;4977931;28;20190;-85
2022/11/25 10:29:53;;;;;;;6.77;3.70;;;;;;;;;;4978985;28;20183;-85
2022/11/25 10:32:22;;;;;;;7.30;3.60;;;;;;;;;;4993897;28;20210;-85
2022/11/25 10:34:58;;;;;;;6.97;3.73;;;;;;;;;;4992661;28;20253;-86
2022/11/25 10:37:34;;;;;;;8.33;4.17;;;;;;;;;;4989581;28;20190;-86
2022/11/25 10:40:00;;;;;;;8.33;4.00;;;;;;;;;;4996909;28;20181;-86
2022/11/25 10:42:26;;;;;;;6.90;3.93;;;;;;;;;;4997426;28;20204;-80
2022/11/25 10:44:53;;;;;;;5.97;3.90;;;;;;;;;;4987252;28;20187;-80
2022/11/25 10:47:33;;;;;;;7.23;3.67;;;;;;;;;;5002661;28;20187;-80
2022/11/25 10:50:12;;;;;;;7.17;4.00;;;;;;;;;;5000981;28;20236;-80
2022/11/25 10:52:44;;;;;;;7.20;3.70;;;;;;;;;;4997934;28;20201;-80
2022/11/25 10:55:15;;;;;;;8.13;4.03;;;;;;;;;;4987485;28;20190;-79
2022/11/25 10:57:41;;;;;;;8.20;4.07;;;;;;;;;;5006036;28;20457;-78
2022/11/25 11:00:23;;;;;;;6.70;3.80;;;;;;;;;;4983450;28;20206;-81
2022/11/25 11:02:49;;;;;;;7.90;4.03;;;;;;;;;;4993538;28;20273;-81
2022/11/25 11:05:23;;;;;;;7.07;3.83;;;;;;;;;;4977552;28;20194;-81
2022/11/25 11:08:06;;;;;;;9.70;4.10;;;;;;;;;;4978260;28;20189;-81
2022/11/25 11:10:32;;;;;;;10.10;4.87;;;;;;;;;;4993700;28;20194;-81
2022/11/25 11:13:02;;;;;;;7.00;3.80;;;;;;;;;;4978745;28;20179;-81
2022/11/25 11:15:30;;;;;;;8.07;4.10;;;;;;;;;;4993328;28;20175;-85
2022/11/25 11:17:57;;;;;;;8.23;4.50;;;;;;;;;;4985633;28;20182;-86
2022/11/25 11:20:24;;;;;;;8.23;4.20;;;;;;;;;;4978421;28;20205;-85
2022/11/25 11:23:16;;;;;;;8.57;4.47;;;;;;;;;;4983818;28;20182;-85
2022/11/25 11:25:56;;;;;;;7.63;4.30;;;;;;;;;;4985745;28;20193;-86
2022/11/25 11:28:35;;;;;;;5.90;3.30;;;;;;;;;;5012742;28;20236;-85
2022/11/25 11:31:02;;;;;;;10.03;3.67;;;;;;;;;;5011706;28;20220;-85
2022/11/25 11:33:28;;;;;;;10.13;3.97;;;;;;;;;;4997114;28;20222;-81
2022/11/25 11:36:06;;;;;;;8.37;3.63;;;;;;;;;;5012479;28;20193;-81
2022/11/25 11:38:34;;;;;;;9.33;3.83;;;;;;;;;;4997379;28;20208;-80
2022/11/25 11:41:19;;;;;;;8.43;4.00;;;;;;;;;;4996415;28;20244;-80
2022/11/25 11:44:07;;;;;;;11.33;4.17;;;;;;;;;;4991004;28;20193;-80
2022/11/25 11:46:33;;;;;;;8.47;3.50;;;;;;;;;;4992664;28;20194;-80
2022/11/25 11:49:18;;;;;;;10.07;3.80;;;;;;;;;;4977757;28;20194;-85
2022/11/25 11:51:47;;;;;;;9.37;4.00;;;;;;;;;;4992606;28;20214;-85
2022/11/25 11:54:18;;;;;;;8.60;3.97;;;;;;;;;;4993203;28;20182;-85
2022/11/25 11:56:44;;;;;;;10.00;3.90;;;;;;;;;;5005791;28;20193;-85
2022/11/25 11:59:28;;;;;;;8.53;3.53;;;;;;;;;;4976205;28;20186;-85
2022/11/25 12:02:03;;;;;;;11.33;3.93;;;;;;;;;;4977248;28;20225;-84
2022/11/25 12:04:34;;;;;;;10.63;3.57;;;;;;;;;;4992490;28;20196;-85
2022/11/25 12:07:02;;;;;;;9.17;3.80;;;;;;;;;;4992589;28;20186;-80
2022/11/25 12:09:31;;;;;;;9.07;3.70;;;;;;;;;;4977293;28;20261;-79
2022/11/25 12:12:02;;;;;;;11.03;3.73;;;;;;;;;;5000394;28;20217;-79
2022/11/25 12:14:38;;;;;;;8.47;3.33;;;;;;;;;;5016330;28;20261;-79
2022/11/25 12:17:08;;;;;;;11.80;4.57;;;;;;;;;;5014838;28;20177;-85
2022/11/25 12:19:53;;;;;;;8.87;3.40;;;;;;;;;;5015949;28;20177;-83
2022/11/25 12:22:23;;;;;;;11.80;4.20;;;;;;;;;;4986682;28;20182;-78
2022/11/25 12:24:49;;;;;;;11.33;3.70;;;;;;;;;;5011831;28;20213;-78
2022/11/25 12:27:18;;;;;;;12.10;4.07;;;;;;;;;;5011378;28;20213;-78
2022/11/25 12:29:47;;;;;;;12.63;4.50;;;;;;;;;;5011408;28;20216;-78
2022/11/25 12:32:16;;;;;;;15.20;4.10;;;;;;;;;;4995124;28;20213;-78
2022/11/25 12:34:46;;;;;;;11.97;3.90;;;;;;;;;;5011087;28;20225;-78
2022/11/25 12:37:15;;;;;;;13.03;4.10;;;;;;;;;;4996129;28;20182;-78
2022/11/25 12:39:46;;;;;;;12.63;4.27;;;;;;;;;;5011284;28;20182;-77
2022/11/25 12:42:19;;;;;;;15.17;4.47;;;;;;;;;;4986218;28;20194;-77
2022/11/25 12:44:58;;;;;;;15.13;3.90;;;;;;;;;;4976319;28;20182;-77
2022/11/25 12:47:25;;;;;;;12.77;3.90;;;;;;;;;;4992021;28;20182;-78
2022/11/25 12:49:52;;;;;;;16.93;4.33;;;;;;;;;;4991510;28;20183;-78
2022/11/25 12:52:18;;;;;;;12.17;3.90;;;;;;;;;;4983844;28;20209;-78
2022/11/25 12:54:50;;;;;;;10.63;3.60;;;;;;;;;;5024860;28;20213;-79
2022/11/25 12:57:37;;;;;;;14.20;3.63;;;;;;;;;;4975272;28;20273;-79
2022/11/25 13:00:12;;;;;;;15.30;3.60;;;;;;;;;;4975102;28;20229;-79
2022/11/25 13:02:48;;;;;;;12.90;4.07;;;;;;;;;;4985996;28;20233;-79
2022/11/25 13:05:32;;;;;;;12.47;3.90;;;;;;;;;;4985330;28;20273;-79
2022/11/25 13:08:10;;;;;;;9.00;4.03;;;;;;;;;;4994505;28;20194;-79
2022/11/25 13:10:42;;;;;;;13.63;4.00;;;;;;;;;;4980997;28;20187;-79
2022/11/25 13:13:26;;;;;;;13.73;4.20;;;;;;;;;;4975845;28;20230;-78
2022/11/25 13:15:53;;;;;;;13.77;4.40;;;;;;;;;;4981321;28;20189;-77
2022/11/25 13:18:20;;;;;;;14.47;4.00;;;;;;;;;;4976079;28;20198;-77
2022/11/25 13:20:48;;;;;;;11.20;3.80;;;;;;;;;;4990995;28;20186;-78
2022/11/25 13:23:17;;;;;;;10.70;3.97;;;;;;;;;;4990834;28;20179;-78
2022/11/25 13:25:44;;;;;;;12.90;3.50;;;;;;;;;;4974923;28;20183;-77
2022/11/25 13:28:25;;;;;;;12.17;4.40;;;;;;;;;;4991240;28;20248;-83
2022/11/25 13:30:52;;;;;;;11.83;4.00;;;;;;;;;;4974744;28;20185;-84
2022/11/25 13:33:18;;;;;;;16.30;3.93;;;;;;;;;;4990660;28;20237;-83
2022/11/25 13:35:45;;;;;;;15.43;4.10;;;;;;;;;;4974572;28;20187;-85
2022/11/25 13:38:29;;;;;;;14.97;4.03;;;;;;;;;;4975659;28;20170;-84
2022/11/25 13:41:03;;;;;;;11.77;3.70;;;;;;;;;;4974782;28;20178;-84
2022/11/25 13:43:29;;;;;;;13.73;3.50;;;;;;;;;;4975588;28;20189;-84
2022/11/25 13:45:56;;;;;;;16.83;4.13;;;;;;;;;;4975597;28;20186;-79
2022/11/25 13:48:23;;;;;;;13.77;3.53;;;;;;;;;;4981588;28;20196;-79
2022/11/25 13:50:51;;;;;;;12.73;3.90;;;;;;;;;;4994821;28;20174;-79
2022/11/25 13:53:21;;;;;;;13.53;3.87;;;;;;;;;;4993728;28;20201;-79
2022/11/25 13:55:50;;;;;;;13.20;3.80;;;;;;;;;;4994592;28;20182;-79
2022/11/25 13:58:21;;;;;;;13.93;3.87;;;;;;;;;;4994351;28;20240;-79
2022/11/25 14:00:50;;;;;;;13.87;3.63;;;;;;;;;;4994567;28;20207;-79
2022/11/25 14:03:18;;;;;;;14.10;4.30;;;;;;;;;;4994743;28;20178;-83
2022/11/25 14:06:00;;;;;;;13.97;3.70;;;;;;;;;;4994638;28;20178;-84
2022/11/25 14:08:35;;;;;;;12.53;4.30;;;;;;;;;;4994659;28;20261;-84
2022/11/25 14:11:01;;;;;;;13.80;3.97;;;;;;;;;;4993492;28;20213;-84
2022/11/25 14:13:37;;;;;;;15.67;3.70;;;;;;;;;;4993850;28;20236;-84
2022/11/25 14:16:13;;;;;;;10.60;3.93;;;;;;;;;;4993517;28;20186;-84
2022/11/25 14:18:39;;;;;;;14.97;4.37;;;;;;;;;;4993404;28;20181;-78
2022/11/25 14:21:18;;;;;;;15.77;4.00;;;;;;;;;;4974231;28;20182;-77
2022/11/25 14:24:22;;;;;;;12.90;3.67;;;;;;;;;;4975193;28;20173;-78
2022/11/25 14:26:52;;;;;;;13.23;4.03;;;;;;;;;;4934895;29;20188;-77
2022/11/25 14:29:23;;;;;;;15.73;4.03;;;;;;;;;;4918772;29;20188;-77
2022/11/25 14:31:51;;;;;;;12.13;3.70;;;;;;;;;;4946853;28;20214;-78
2022/11/25 14:34:26;;;;;;;13.83;4.27;;;;;;;;;;4973866;28;20242;-77
2022/11/25 14:36:58;;;;;;;15.60;4.50;;;;;;;;;;4975114;28;20201;-77
2022/11/25 14:39:32;;;;;;;14.17;3.97;;;;;;;;;;4982396;28;20187;-78
2022/11/25 14:42:09;;;;;;;14.00;4.10;;;;;;;;;;4999613;28;20253;-78
2022/11/25 14:44:40;;;;;;;16.47;4.37;;;;;;;;;;4995279;28;20189;-78
2022/11/25 14:47:06;;;;;;;11.47;4.27;;;;;;;;;;5016238;28;20240;-77
2022/11/25 14:49:42;;;;;;;17.60;4.10;;;;;;;;;;5003368;28;20197;-78
2022/11/25 14:52:09;;;;;;;14.67;4.27;;;;;;;;;;4997937;28;20213;-83